createdAt,value
2018-08-04T00:01:37.407Z,20.40
2018-08-04T00:04:06.206Z,20.50
2018-08-04T00:06:35.763Z,20.50
2018-08-04T00:09:07.301Z,20.50
2018-08-04T00:11:35.772Z,20.50
2018-08-04T00:14:04.249Z,20.40
2018-08-04T00:16:32.843Z,20.40
2018-08-04T00:19:01.442Z,20.40
2018-08-04T00:21:29.937Z,20.40
2018-08-04T00:23:58.516Z,20.40
2018-08-04T00:26:31.184Z,20.40
2018-08-04T00:29:00.960Z,20.50
2018-08-04T00:31:30.912Z,20.50
2018-08-04T00:33:59.397Z,20.50
2018-08-04T00:36:28.023Z,20.50
2018-08-04T00:38:56.693Z,20.60
2018-08-04T00:41:25.221Z,20.60
2018-08-04T00:43:53.727Z,20.60
2018-08-04T00:46:22.189Z,20.50
2018-08-04T00:48:50.613Z,20.40
2018-08-04T00:51:19.126Z,20.30
2018-08-04T00:53:47.564Z,20.20
2018-08-04T00:56:16.009Z,20.00
2018-08-04T00:58:44.465Z,19.90
2018-08-04T01:01:12.941Z,19.90
2018-08-04T01:06:09.593Z,19.70
2018-08-04T01:08:38.037Z,19.70
2018-08-04T01:11:06.673Z,19.60
2018-08-04T01:13:35.162Z,19.60
2018-08-04T01:16:03.637Z,19.50
2018-08-04T01:18:32.073Z,19.50
2018-08-04T01:21:00.584Z,19.40
2018-08-04T01:25:57.181Z,19.40
2018-08-04T01:28:25.668Z,19.40
2018-08-04T01:30:54.109Z,19.40
2018-08-04T01:33:22.561Z,19.30
2018-08-04T01:35:51.037Z,19.20
2018-08-04T01:38:19.486Z,19.10
2018-08-04T01:40:47.932Z,19.10
2018-08-04T01:43:16.427Z,19.10
2018-08-04T01:45:44.847Z,19.10
2018-08-04T01:48:13.285Z,19.20
2018-08-04T01:50:41.875Z,19.20
2018-08-04T01:53:10.396Z,19.30
2018-08-04T01:55:38.849Z,19.30
2018-08-04T01:58:07.379Z,19.30
2018-08-04T02:00:35.828Z,19.30
2018-08-04T02:03:04.293Z,19.30
2018-08-04T02:05:32.880Z,19.30
2018-08-04T02:08:01.341Z,19.30
2018-08-04T02:10:29.816Z,19.30
2018-08-04T02:12:58.454Z,19.20
2018-08-04T02:15:26.918Z,19.30
2018-08-04T02:17:55.434Z,19.30
2018-08-04T02:20:23.887Z,19.20
2018-08-04T02:25:20.430Z,19.10
2018-08-04T02:27:48.934Z,19.10
2018-08-04T02:30:17.405Z,19.00
2018-08-04T02:32:45.850Z,18.90
2018-08-04T02:35:14.311Z,18.80
2018-08-04T02:37:42.753Z,18.80
2018-08-04T02:40:11.249Z,18.80
2018-08-04T02:42:39.721Z,18.80
2018-08-04T02:45:08.810Z,18.80
2018-08-04T02:47:37.323Z,18.80
2018-08-04T02:50:06.813Z,18.80
2018-08-04T02:52:35.529Z,18.90
2018-08-04T02:55:04.055Z,18.90
2018-08-04T02:57:32.525Z,18.90
2018-08-04T03:00:00.985Z,19.00
2018-08-04T03:02:29.522Z,19.00
2018-08-04T03:04:57.989Z,19.00
2018-08-04T03:07:26.425Z,19.10
2018-08-04T03:09:54.903Z,19.10
2018-08-04T03:12:23.406Z,19.10
2018-08-04T03:14:51.849Z,19.20
2018-08-04T03:17:20.338Z,19.20
2018-08-04T03:19:48.817Z,19.20
2018-08-04T03:22:17.246Z,19.30
2018-08-04T03:24:45.685Z,19.40
2018-08-04T03:27:14.194Z,19.50
2018-08-04T03:29:42.827Z,19.50
2018-08-04T03:32:11.269Z,19.60
2018-08-04T03:34:39.724Z,19.60
2018-08-04T03:37:08.192Z,19.70
2018-08-04T03:39:36.744Z,19.70
2018-08-04T03:42:05.254Z,19.70
2018-08-04T03:44:33.686Z,19.70
2018-08-04T03:47:02.113Z,19.70
2018-08-04T03:51:58.750Z,19.80
2018-08-04T03:54:27.193Z,19.90
2018-08-04T03:56:55.686Z,19.90
2018-08-04T03:59:24.120Z,19.90
2018-08-04T04:01:52.549Z,20.00
2018-08-04T04:04:21.085Z,20.00
2018-08-04T04:06:49.553Z,20.10
2018-08-04T04:09:17.999Z,20.10
2018-08-04T04:11:46.470Z,20.20
2018-08-04T04:14:14.938Z,20.20
2018-08-04T04:19:11.555Z,20.30
2018-08-04T04:21:39.988Z,20.40
2018-08-04T04:24:08.428Z,20.30
2018-08-04T04:26:36.964Z,20.40
2018-08-04T04:29:05.492Z,20.30
2018-08-04T04:31:33.950Z,20.30
2018-08-04T04:34:02.514Z,20.40
2018-08-04T04:36:31.017Z,20.30
2018-08-04T04:38:59.520Z,20.40
2018-08-04T04:41:28.009Z,20.40
2018-08-04T04:43:56.514Z,20.40
2018-08-04T04:46:24.982Z,20.40
2018-08-04T04:48:53.441Z,20.50
2018-08-04T04:51:21.869Z,20.50
2018-08-04T04:53:50.285Z,20.60
2018-08-04T04:56:18.760Z,20.60
2018-08-04T04:58:47.181Z,20.70
2018-08-04T05:01:15.623Z,20.80
2018-08-04T05:03:44.138Z,20.90
2018-08-04T05:06:12.587Z,21.00
2018-08-04T05:08:41.031Z,21.10
2018-08-04T05:11:09.537Z,21.20
2018-08-04T05:16:06.097Z,21.40
2018-08-04T05:18:34.592Z,21.50
2018-08-04T05:21:03.081Z,21.60
2018-08-04T05:23:31.509Z,21.60
2018-08-04T05:26:00.037Z,21.60
2018-08-04T05:28:28.467Z,21.70
2018-08-04T05:30:56.929Z,21.70
2018-08-04T05:33:25.428Z,21.70
2018-08-04T05:35:54.071Z,21.70
2018-08-04T05:38:22.702Z,21.70
2018-08-04T05:40:51.193Z,21.70
2018-08-04T05:43:19.674Z,21.70
2018-08-04T05:45:48.118Z,21.60
2018-08-04T05:48:16.598Z,21.60
2018-08-04T05:50:45.065Z,21.60
2018-08-04T05:53:13.550Z,21.60
2018-08-04T05:55:42.044Z,21.60
2018-08-04T05:58:10.473Z,21.70
2018-08-04T06:00:39.012Z,21.70
2018-08-04T06:03:07.473Z,21.80
2018-08-04T06:05:35.917Z,21.80
2018-08-04T06:08:04.396Z,21.80
2018-08-04T06:10:32.967Z,21.80
2018-08-04T06:13:01.413Z,21.90
2018-08-04T06:15:29.845Z,22.00
2018-08-04T06:17:58.375Z,22.10
2018-08-04T06:20:26.882Z,22.20
2018-08-04T06:22:55.301Z,22.30
2018-08-04T06:25:23.785Z,22.40
2018-08-04T06:27:52.222Z,22.50
2018-08-04T06:30:20.673Z,22.60
2018-08-04T06:32:49.123Z,22.60
2018-08-04T06:35:17.569Z,22.60
2018-08-04T06:37:46.012Z,22.60
2018-08-04T06:40:14.526Z,22.70
2018-08-04T06:42:42.947Z,22.70
2018-08-04T06:45:11.373Z,22.80
2018-08-04T06:47:39.881Z,23.00
2018-08-04T06:50:08.382Z,23.10
2018-08-04T06:52:37.026Z,23.20
2018-08-04T06:55:05.925Z,23.40
2018-08-04T06:57:34.385Z,23.60
2018-08-04T07:00:02.858Z,23.80
2018-08-04T07:02:31.357Z,23.90
2018-08-04T07:04:59.833Z,24.10
2018-08-04T07:07:28.336Z,24.20
2018-08-04T07:09:56.854Z,24.40
2018-08-04T07:12:25.322Z,24.40
2018-08-04T07:14:53.761Z,24.50
2018-08-04T07:17:22.297Z,24.60
2018-08-04T07:19:50.881Z,24.60
2018-08-04T07:22:19.344Z,24.50
2018-08-04T07:24:47.865Z,24.50
2018-08-04T07:27:16.306Z,24.40
2018-08-04T07:29:44.753Z,24.40
2018-08-04T07:32:13.280Z,24.40
2018-08-04T07:34:41.735Z,24.40
2018-08-04T07:37:10.174Z,24.50
2018-08-04T07:39:38.731Z,24.50
2018-08-04T07:42:07.461Z,24.50
2018-08-04T07:44:36.113Z,24.50
2018-08-04T07:47:04.721Z,24.40
2018-08-04T07:49:33.469Z,24.40
2018-08-04T07:52:01.897Z,24.20
2018-08-04T07:54:30.369Z,24.10
2018-08-04T07:56:58.832Z,24.10
2018-08-04T07:59:27.386Z,23.90
2018-08-04T08:01:55.877Z,23.70
2018-08-04T08:04:24.313Z,23.60
2018-08-04T08:06:52.791Z,23.40
2018-08-04T08:09:21.286Z,23.40
2018-08-04T08:11:49.789Z,23.40
2018-08-04T08:14:18.277Z,23.40
2018-08-04T08:16:46.769Z,23.50
2018-08-04T08:19:15.261Z,23.60
2018-08-04T08:21:43.729Z,23.80
2018-08-04T08:24:12.285Z,24.00
2018-08-04T08:26:40.772Z,24.30
2018-08-04T08:29:09.227Z,24.50
2018-08-04T08:31:37.802Z,24.60
2018-08-04T08:34:06.273Z,24.60
2018-08-04T08:36:34.704Z,24.70
2018-08-04T08:39:03.373Z,24.70
2018-08-04T08:43:59.945Z,24.80
2018-08-04T08:46:28.457Z,24.80
2018-08-04T08:48:56.941Z,24.80
2018-08-04T08:51:25.474Z,24.70
2018-08-04T08:53:54.060Z,24.70
2018-08-04T08:56:22.518Z,24.60
2018-08-04T08:58:50.969Z,24.60
2018-08-04T09:01:19.598Z,24.80
2018-08-04T09:03:48.065Z,24.80
2018-08-04T09:06:16.549Z,24.90
2018-08-04T09:08:45.117Z,24.90
2018-08-04T09:11:13.580Z,25.00
2018-08-04T09:13:42.081Z,25.00
2018-08-04T09:16:11.346Z,25.10
2018-08-04T09:18:39.853Z,25.10
2018-08-04T09:21:08.429Z,25.20
2018-08-04T09:23:36.969Z,25.20
2018-08-04T09:26:05.638Z,25.30
2018-08-04T09:28:34.086Z,25.40
2018-08-04T09:31:02.607Z,25.50
2018-08-04T09:33:31.057Z,25.50
2018-08-04T09:35:59.526Z,25.30
2018-08-04T09:38:28.089Z,25.30
2018-08-04T09:40:56.560Z,25.30
2018-08-04T09:45:53.214Z,25.40
2018-08-04T09:48:21.708Z,25.60
2018-08-04T09:50:50.177Z,25.70
2018-08-04T09:53:18.713Z,25.70
2018-08-04T09:55:47.168Z,25.70
2018-08-04T09:58:15.645Z,25.80
2018-08-04T10:00:49.361Z,25.80
2018-08-04T10:03:17.846Z,25.80
2018-08-04T10:05:46.324Z,25.80
2018-08-04T10:08:14.861Z,25.90
2018-08-04T10:10:43.313Z,26.00
2018-08-04T10:13:11.786Z,26.10
2018-08-04T10:15:40.471Z,26.10
2018-08-04T10:18:09.013Z,26.20
2018-08-04T10:20:37.487Z,26.20
2018-08-04T10:23:06.217Z,26.30
2018-08-04T10:25:34.688Z,26.40
2018-08-04T10:28:03.170Z,26.40
2018-08-04T10:30:31.677Z,26.40
2018-08-04T10:33:00.147Z,26.30
2018-08-04T10:35:28.647Z,26.30
2018-08-04T10:37:57.151Z,26.20
2018-08-04T10:40:25.641Z,26.30
2018-08-04T10:42:54.109Z,26.20
2018-08-04T10:45:22.617Z,26.20
2018-08-04T10:47:51.113Z,26.30
2018-08-04T10:50:19.630Z,26.30
2018-08-04T10:52:48.217Z,26.40
2018-08-04T10:57:44.877Z,26.50
2018-08-04T11:00:13.537Z,26.60
2018-08-04T11:02:42.017Z,26.70
2018-08-04T11:05:10.521Z,26.80
2018-08-04T11:07:39.005Z,26.80
2018-08-04T11:10:07.737Z,26.70
2018-08-04T11:12:36.236Z,26.70
2018-08-04T11:15:04.734Z,26.60
2018-08-04T11:17:33.222Z,26.40
2018-08-04T11:20:01.669Z,26.30
2018-08-04T11:22:30.163Z,26.20
2018-08-04T11:24:58.620Z,26.30
2018-08-04T11:27:27.311Z,26.20
2018-08-04T11:29:55.858Z,26.20
2018-08-04T11:32:24.341Z,26.20
2018-08-04T11:34:52.821Z,26.30
2018-08-04T11:37:21.285Z,26.40
2018-08-04T11:39:49.941Z,26.50
2018-08-04T11:42:18.409Z,26.60
2018-08-04T11:44:46.929Z,26.70
2018-08-04T11:47:15.415Z,26.60
2018-08-04T11:49:43.870Z,26.70
2018-08-04T11:52:12.413Z,26.90
2018-08-04T11:54:40.874Z,27.00
2018-08-04T11:57:09.337Z,27.10
2018-08-04T11:59:37.885Z,27.20
2018-08-04T12:04:34.477Z,27.40
2018-08-04T12:07:03.114Z,27.70
2018-08-04T12:09:31.590Z,27.70
2018-08-04T12:12:00.050Z,27.70
2018-08-04T12:14:28.585Z,27.70
2018-08-04T12:16:57.058Z,27.50
2018-08-04T12:19:25.638Z,27.30
2018-08-04T12:21:54.233Z,27.10
2018-08-04T12:24:22.697Z,26.90
2018-08-04T12:26:51.178Z,26.80
2018-08-04T12:29:19.694Z,26.80
2018-08-04T12:31:48.134Z,26.90
2018-08-04T12:34:16.648Z,27.10
2018-08-04T12:36:45.170Z,27.10
2018-08-04T12:39:13.633Z,27.20
2018-08-04T12:41:42.114Z,27.30
2018-08-04T12:44:10.701Z,27.30
2018-08-04T12:46:39.283Z,27.10
2018-08-04T12:49:08.081Z,26.90
2018-08-04T12:51:36.573Z,26.80
2018-08-04T12:54:05.109Z,26.80
2018-08-04T12:56:33.702Z,26.90
2018-08-04T12:59:02.238Z,27.00
2018-08-04T13:01:30.716Z,27.10
2018-08-04T13:03:59.153Z,27.30
2018-08-04T13:08:56.029Z,27.70
2018-08-04T13:11:24.448Z,27.70
2018-08-04T13:13:52.948Z,27.60
2018-08-04T13:16:21.397Z,27.60
2018-08-04T13:18:49.860Z,27.50
2018-08-04T13:21:18.385Z,27.50
2018-08-04T13:23:46.843Z,27.50
2018-08-04T13:26:15.286Z,27.60
2018-08-04T13:28:43.766Z,27.60
2018-08-04T13:31:12.218Z,27.70
2018-08-04T13:33:40.716Z,28.00
2018-08-04T13:36:09.245Z,28.30
2018-08-04T13:38:37.688Z,28.50
2018-08-04T13:41:06.129Z,28.60
2018-08-04T13:43:34.625Z,28.30
2018-08-04T13:46:03.229Z,27.90
2018-08-04T13:48:31.692Z,27.70
2018-08-04T13:51:00.255Z,27.50
2018-08-04T13:53:28.681Z,27.40
2018-08-04T13:55:57.156Z,27.30
2018-08-04T13:58:25.637Z,27.20
2018-08-04T14:00:54.185Z,27.30
2018-08-04T14:03:22.613Z,27.40
2018-08-04T14:05:51.183Z,27.60
2018-08-04T14:08:19.721Z,27.60
2018-08-04T14:10:48.221Z,27.50
2018-08-04T14:13:16.697Z,27.40
2018-08-04T14:15:45.148Z,27.20
2018-08-04T14:18:13.578Z,27.00
2018-08-04T14:20:42.085Z,26.80
2018-08-04T14:23:10.521Z,26.80
2018-08-04T14:25:38.978Z,26.80
2018-08-04T14:28:07.484Z,26.80
2018-08-04T14:30:36.000Z,26.90
2018-08-04T14:33:04.489Z,26.90
2018-08-04T14:35:32.985Z,27.00
2018-08-04T14:38:01.448Z,27.10
2018-08-04T14:40:29.889Z,27.30
2018-08-04T14:42:58.429Z,27.30
2018-08-04T14:45:26.845Z,27.40
2018-08-04T14:47:55.310Z,27.60
2018-08-04T14:50:23.833Z,27.60
2018-08-04T14:52:52.275Z,27.60
2018-08-04T14:55:20.740Z,27.40
2018-08-04T14:57:49.266Z,27.20
2018-08-04T15:00:17.705Z,26.90
2018-08-04T15:02:46.179Z,26.60
2018-08-04T15:05:14.673Z,26.40
2018-08-04T15:07:43.173Z,26.10
2018-08-04T15:10:11.730Z,26.10
2018-08-04T15:12:40.584Z,26.10
2018-08-04T15:15:09.173Z,26.10
2018-08-04T15:17:37.772Z,25.90
2018-08-04T15:20:06.852Z,26.00
2018-08-04T15:22:35.355Z,26.20
2018-08-04T15:25:05.229Z,26.40
2018-08-04T15:27:34.481Z,26.60
2018-08-04T15:30:03.215Z,26.80
2018-08-04T15:32:31.882Z,27.10
2018-08-04T15:35:00.629Z,27.40
2018-08-04T15:37:29.373Z,27.70
2018-08-04T15:39:57.900Z,27.80
2018-08-04T15:42:26.377Z,27.90
2018-08-04T15:44:54.789Z,28.00
2018-08-04T15:47:23.229Z,28.10
2018-08-04T15:49:51.828Z,28.10
2018-08-04T15:52:20.345Z,28.20
2018-08-04T15:54:48.796Z,28.50
2018-08-04T15:57:17.317Z,28.30
2018-08-04T15:59:45.785Z,28.30
2018-08-04T16:02:14.227Z,28.50
2018-08-04T16:04:42.709Z,28.90
2018-08-04T16:07:11.158Z,29.00
2018-08-04T16:09:39.609Z,29.00
2018-08-04T16:12:08.296Z,29.00
2018-08-04T16:14:36.757Z,28.90
2018-08-04T16:17:05.573Z,29.00
2018-08-04T16:19:34.145Z,29.20
2018-08-04T16:24:30.791Z,30.30
2018-08-04T16:26:59.585Z,30.60
2018-08-04T16:29:28.049Z,30.90
2018-08-04T16:31:56.525Z,31.10
2018-08-04T16:34:25.025Z,31.00
2018-08-04T16:36:53.610Z,30.80
2018-08-04T16:39:22.065Z,30.60
2018-08-04T16:41:50.607Z,30.80
2018-08-04T16:44:19.018Z,31.00
2018-08-04T16:46:47.464Z,30.90
2018-08-04T16:49:15.960Z,31.00
2018-08-04T16:51:44.397Z,31.00
2018-08-04T16:54:12.897Z,31.00
2018-08-04T16:56:41.377Z,30.60
2018-08-04T16:59:09.834Z,29.80
2018-08-04T17:01:38.933Z,28.90
2018-08-04T17:04:07.453Z,28.20
2018-08-04T17:06:35.987Z,27.60
2018-08-04T17:09:07.213Z,27.20
2018-08-04T17:11:35.692Z,26.80
2018-08-04T17:14:04.128Z,26.60
2018-08-04T17:16:32.762Z,26.40
2018-08-04T17:19:01.201Z,26.10
2018-08-04T17:21:29.688Z,26.00
2018-08-04T17:23:58.277Z,25.80
2018-08-04T17:26:26.814Z,25.70
2018-08-04T17:28:55.294Z,25.60
2018-08-04T17:31:23.837Z,25.50
2018-08-04T17:33:52.345Z,25.30
2018-08-04T17:36:20.848Z,25.20
2018-08-04T17:38:49.365Z,25.10
2018-08-04T17:41:18.010Z,25.00
2018-08-04T17:43:46.458Z,24.80
2018-08-04T17:46:14.969Z,24.70
2018-08-04T17:48:43.537Z,24.50
2018-08-04T17:51:12.025Z,24.40
2018-08-04T17:53:40.477Z,24.30
2018-08-04T17:56:09.941Z,24.30
2018-08-04T17:58:38.401Z,24.20
2018-08-04T18:01:07.024Z,24.10
2018-08-04T18:03:35.680Z,24.00
2018-08-04T18:08:32.489Z,23.80
2018-08-04T18:11:01.037Z,23.70
2018-08-04T18:13:29.689Z,23.70
2018-08-04T18:15:58.261Z,23.60
2018-08-04T18:18:26.761Z,23.60
2018-08-04T18:20:55.201Z,23.50
2018-08-04T18:23:23.648Z,23.40
2018-08-04T18:25:52.106Z,23.50
2018-08-04T18:28:20.531Z,23.50
2018-08-04T18:30:48.938Z,23.50
2018-08-04T18:33:17.561Z,23.50
2018-08-04T18:35:46.130Z,23.50
2018-08-04T18:38:14.598Z,23.50
2018-08-04T18:40:43.112Z,23.50
2018-08-04T18:43:11.561Z,23.40
2018-08-04T18:45:40.026Z,23.40
2018-08-04T18:48:08.529Z,23.30
2018-08-04T18:50:37.057Z,23.20
2018-08-04T18:55:33.779Z,23.00
2018-08-04T18:58:02.300Z,22.90
2018-08-04T19:00:30.854Z,22.80
2018-08-04T19:02:59.394Z,22.60
2018-08-04T19:05:27.862Z,22.60
2018-08-04T19:07:56.539Z,22.50
2018-08-04T19:10:25.167Z,22.40
2018-08-04T19:12:53.532Z,22.40
2018-08-04T19:15:22.034Z,22.30
2018-08-04T19:17:50.646Z,22.20
2018-08-04T19:20:19.093Z,22.10
2018-08-04T19:22:47.580Z,22.10
2018-08-04T19:25:16.101Z,22.00
2018-08-04T19:27:44.590Z,21.90
2018-08-04T19:30:13.126Z,21.80
2018-08-04T19:32:41.681Z,21.80
2018-08-04T19:35:10.130Z,21.70
2018-08-04T19:37:38.580Z,21.70
2018-08-04T19:40:07.133Z,21.70
2018-08-04T19:42:35.601Z,21.60
2018-08-04T19:45:04.178Z,21.60
2018-08-04T19:47:32.777Z,21.60
2018-08-04T19:50:02.013Z,21.50
2018-08-04T19:52:30.477Z,21.50
2018-08-04T19:54:58.998Z,21.50
2018-08-04T19:57:27.501Z,21.40
2018-08-04T19:59:56.025Z,21.40
2018-08-04T20:02:24.481Z,21.30
2018-08-04T20:04:52.904Z,21.30
2018-08-04T20:07:21.357Z,21.20
2018-08-04T20:09:49.843Z,21.10
2018-08-04T20:12:18.341Z,21.10
2018-08-04T20:17:15.081Z,21.10
2018-08-04T20:19:43.673Z,21.10
2018-08-04T20:22:14.248Z,21.10
2018-08-04T20:24:42.737Z,21.10
2018-08-04T20:27:11.186Z,21.10
2018-08-04T20:29:39.936Z,21.20
2018-08-04T20:32:08.933Z,21.20
2018-08-04T20:34:37.449Z,21.20
2018-08-04T20:37:05.972Z,21.30
2018-08-04T20:39:34.686Z,21.30
2018-08-04T20:42:03.385Z,21.30
2018-08-04T20:44:31.886Z,21.40
2018-08-04T20:47:00.373Z,21.40
2018-08-04T20:49:29.054Z,21.40
2018-08-04T20:51:57.507Z,21.40
2018-08-04T20:54:26.082Z,21.40
2018-08-04T20:56:54.544Z,21.30
2018-08-04T20:59:24.120Z,21.30
2018-08-04T21:02:02.562Z,21.40
2018-08-04T21:04:32.305Z,21.40
2018-08-04T21:07:01.249Z,21.30
2018-08-04T21:09:29.757Z,21.40
2018-08-04T21:11:58.340Z,21.40
2018-08-04T21:14:27.727Z,21.40
2018-08-04T21:16:57.017Z,21.40
2018-08-04T21:19:26.041Z,21.40
2018-08-04T21:21:54.537Z,21.30
2018-08-04T21:24:24.256Z,21.30
2018-08-04T21:26:53.619Z,21.30
2018-08-04T21:29:22.529Z,21.20
2018-08-04T21:31:51.194Z,21.20
2018-08-04T21:34:19.939Z,21.20
2018-08-04T21:36:48.465Z,21.20
2018-08-04T21:39:18.356Z,21.20
2018-08-04T21:41:47.296Z,21.20
2018-08-04T21:44:15.782Z,21.20
2018-08-04T21:46:46.321Z,21.10
2018-08-04T21:49:14.881Z,21.10
2018-08-04T21:51:44.464Z,21.10
2018-08-04T21:54:14.209Z,21.20
2018-08-04T21:56:43.109Z,21.20
2018-08-04T21:59:11.710Z,21.20
2018-08-04T22:01:44.521Z,21.20
2018-08-04T22:04:13.085Z,21.20
2018-08-04T22:06:53.841Z,21.10
2018-08-04T22:09:24.173Z,20.80
2018-08-04T22:11:52.777Z,20.40
2018-08-04T22:14:21.237Z,20.00
2018-08-04T22:16:49.710Z,19.80
2018-08-04T22:19:18.179Z,19.40
2018-08-04T22:21:46.708Z,19.20
2018-08-04T22:24:15.154Z,19.00
2018-08-04T22:26:43.605Z,19.00
2018-08-04T22:29:12.097Z,18.90
2018-08-04T22:31:40.601Z,18.80
2018-08-04T22:34:09.061Z,18.80
2018-08-04T22:36:37.561Z,18.80
2018-08-04T22:39:06.661Z,18.80
2018-08-04T22:41:35.118Z,18.80
2018-08-04T22:44:03.662Z,18.80
2018-08-04T22:46:32.134Z,18.80
2018-08-04T22:49:00.580Z,18.80
2018-08-04T22:51:29.992Z,18.80
2018-08-04T22:53:58.559Z,18.80
2018-08-04T22:56:27.056Z,18.80
2018-08-04T22:58:55.524Z,18.70
2018-08-04T23:01:24.017Z,18.70
2018-08-04T23:03:52.492Z,18.70
2018-08-04T23:06:21.021Z,18.70
2018-08-04T23:08:49.494Z,18.70
2018-08-04T23:13:46.133Z,18.70
2018-08-04T23:16:15.718Z,18.60
2018-08-04T23:18:44.209Z,18.60
2018-08-04T23:21:12.744Z,18.60
2018-08-04T23:23:41.201Z,18.60
2018-08-04T23:26:09.684Z,18.60
2018-08-04T23:28:38.249Z,18.60
2018-08-04T23:31:06.701Z,18.60
2018-08-04T23:33:35.193Z,18.50
2018-08-04T23:36:03.705Z,18.50
2018-08-04T23:38:32.158Z,18.50
2018-08-04T23:41:00.577Z,18.40
2018-08-04T23:43:29.085Z,18.40
2018-08-04T23:45:57.549Z,18.40
2018-08-04T23:48:25.977Z,18.40
2018-08-04T23:50:54.485Z,18.30
2018-08-04T23:53:22.941Z,18.30
2018-08-04T23:55:51.401Z,18.20
2018-08-04T23:58:19.925Z,18.20
